sensor_id;sensor_type;location;lat;lon;timestamp;pressure;altitude;pressure_sealevel;temperature;humidity
17781;BME280;8498;52.516;13.790;2023-03-26T00:01:15;99662.72;;;9.31;95.12
17781;BME280;8498;52.516;13.790;2023-03-26T00:06:37;99657.19;;;9.34;95.45
17781;BME280;8498;52.516;13.790;2023-03-26T00:12:01;99669.72;;;9.32;95.85
17781;BME280;8498;52.516;13.790;2023-03-26T00:17:24;99676.31;;;9.37;95.69
17781;BME280;8498;52.516;13.790;2023-03-26T00:22:46;99686.91;;;9.37;95.51
17781;BME280;8498;52.516;13.790;2023-03-26T00:28:09;99696.34;;;9.30;95.08
17781;BME280;8498;52.516;13.790;2023-03-26T00:33:31;99691.75;;;9.32;94.74
17781;BME280;8498;52.516;13.790;2023-03-26T00:38:54;99688.84;;;9.24;94.57
17781;BME280;8498;52.516;13.790;2023-03-26T00:44:16;99686.91;;;9.37;94.03
17781;BME280;8498;52.516;13.790;2023-03-26T00:49:38;99691.03;;;9.30;94.47
17781;BME280;8498;52.516;13.790;2023-03-26T00:55:01;99683.94;;;9.31;93.98
17781;BME280;8498;52.516;13.790;2023-03-26T01:00:29;99691.25;;;9.27;93.78
17781;BME280;8498;52.516;13.790;2023-03-26T01:06:13;99684.38;;;9.36;92.49
17781;BME280;8498;52.516;13.790;2023-03-26T01:11:41;99687.88;;;9.36;92.03
17781;BME280;8498;52.516;13.790;2023-03-26T01:17:05;99697.53;;;9.37;91.68
17781;BME280;8498;52.516;13.790;2023-03-26T01:22:29;99698.13;;;9.41;90.86
17781;BME280;8498;52.516;13.790;2023-03-26T01:27:55;99696.22;;;9.43;90.17
17781;BME280;8498;52.516;13.790;2023-03-26T01:44:46;99695.84;;;9.36;90.28
17781;BME280;8498;52.516;13.790;2023-03-26T01:50:10;99700.91;;;9.28;91.80
17781;BME280;8498;52.516;13.790;2023-03-26T01:55:53;99705.34;;;9.28;92.55
17781;BME280;8498;52.516;13.790;2023-03-26T02:01:32;99698.84;;;9.20;93.17
17781;BME280;8498;52.516;13.790;2023-03-26T02:07:15;99703.09;;;9.23;92.57
17781;BME280;8498;52.516;13.790;2023-03-26T02:12:43;99707.13;;;9.05;91.47
17781;BME280;8498;52.516;13.790;2023-03-26T02:18:06;99699.19;;;9.16;90.70
17781;BME280;8498;52.516;13.790;2023-03-26T02:23:32;99703.44;;;9.18;90.31
17781;BME280;8498;52.516;13.790;2023-03-26T02:28:57;99711.72;;;9.14;90.07
17781;BME280;8498;52.516;13.790;2023-03-26T02:34:20;99711.72;;;9.14;90.49
17781;BME280;8498;52.516;13.790;2023-03-26T02:39:45;99708.81;;;9.06;91.19
17781;BME280;8498;52.516;13.790;2023-03-26T02:45:18;99721.47;;;8.91;92.72
17781;BME280;8498;52.516;13.790;2023-03-26T02:50:58;99721.78;;;8.75;93.42
17781;BME280;8498;52.516;13.790;2023-03-26T02:56:30;99715.53;;;8.88;93.02
17781;BME280;8498;52.516;13.790;2023-03-26T03:02:13;99732.84;;;8.69;94.17
17781;BME280;8498;52.516;13.790;2023-03-26T03:07:36;99729.38;;;8.80;93.26
17781;BME280;8498;52.516;13.790;2023-03-26T03:13:00;99737.94;;;8.95;93.01
17781;BME280;8498;52.516;13.790;2023-03-26T03:18:22;99736.66;;;9.00;91.80
17781;BME280;8498;52.516;13.790;2023-03-26T03:23:45;99723.75;;;9.07;90.92
17781;BME280;8498;52.516;13.790;2023-03-26T03:29:08;99741.13;;;9.11;90.49
17781;BME280;8498;52.516;13.790;2023-03-26T03:34:31;99732.66;;;9.06;90.95
17781;BME280;8498;52.516;13.790;2023-03-26T03:39:53;99740.72;;;8.93;91.54
17781;BME280;8498;52.516;13.790;2023-03-26T03:45:19;99746.16;;;9.03;91.76
17781;BME280;8498;52.516;13.790;2023-03-26T03:51:10;99746.16;;;9.03;91.19
17781;BME280;8498;52.516;13.790;2023-03-26T03:56:53;99759.41;;;9.14;90.13
17781;BME280;8498;52.516;13.790;2023-03-26T04:02:42;99765.19;;;9.08;89.87
17781;BME280;8498;52.516;13.790;2023-03-26T04:08:11;99758.72;;;9.23;89.50
17781;BME280;8498;52.516;13.790;2023-03-26T04:13:40;99764.16;;;9.22;89.62
17781;BME280;8498;52.516;13.790;2023-03-26T04:19:18;99755.25;;;9.34;89.25
17781;BME280;8498;52.516;13.790;2023-03-26T04:24:41;99762.94;;;9.26;89.29
17781;BME280;8498;52.516;13.790;2023-03-26T04:30:25;99763.53;;;9.18;89.75
17781;BME280;8498;52.516;13.790;2023-03-26T04:35:59;99764.16;;;9.33;90.05
17781;BME280;8498;52.516;13.790;2023-03-26T04:41:28;99772.44;;;9.28;90.09
17781;BME280;8498;52.516;13.790;2023-03-26T04:46:56;99774.84;;;9.09;90.45
17781;BME280;8498;52.516;13.790;2023-03-26T04:52:30;99774.63;;;9.23;90.41
17781;BME280;8498;52.516;13.790;2023-03-26T04:58:12;99764.72;;;9.14;90.35
17781;BME280;8498;52.516;13.790;2023-03-26T05:03:47;99767.88;;;9.19;90.15
17781;BME280;8498;52.516;13.790;2023-03-26T05:09:10;99763.53;;;9.18;90.86
17781;BME280;8498;52.516;13.790;2023-03-26T05:14:51;99767.03;;;9.18;90.93
17781;BME280;8498;52.516;13.790;2023-03-26T05:20:30;99766.19;;;9.18;90.62
17781;BME280;8498;52.516;13.790;2023-03-26T05:25:54;99773.47;;;9.03;91.75
17781;BME280;8498;52.516;13.790;2023-03-26T05:31:19;99766.41;;;9.26;90.14
17781;BME280;8498;52.516;13.790;2023-03-26T05:36:49;99772.94;;;9.22;89.79
17781;BME280;8498;52.516;13.790;2023-03-26T05:42:30;99783.91;;;9.29;89.72
17781;BME280;8498;52.516;13.790;2023-03-26T05:48:05;99783.78;;;9.30;89.33
17781;BME280;8498;52.516;13.790;2023-03-26T05:53:28;99785.09;;;9.36;89.29
17781;BME280;8498;52.516;13.790;2023-03-26T05:59:25;99783.31;;;9.36;88.04
17781;BME280;8498;52.516;13.790;2023-03-26T06:05:14;99780.19;;;9.31;89.39
17781;BME280;8498;52.516;13.790;2023-03-26T06:11:03;99778.50;;;9.41;88.99
17781;BME280;8498;52.516;13.790;2023-03-26T06:16:32;99779.69;;;9.26;89.08
17781;BME280;8498;52.516;13.790;2023-03-26T06:22:24;99793.53;;;9.30;89.23
17781;BME280;8498;52.516;13.790;2023-03-26T06:28:05;99788.38;;;9.50;88.59
17781;BME280;8498;52.516;13.790;2023-03-26T06:33:51;99792.25;;;9.57;86.86
17781;BME280;8498;52.516;13.790;2023-03-26T06:39:14;99811.53;;;9.60;85.31
17781;BME280;8498;52.516;13.790;2023-03-26T06:44:50;99820.91;;;9.41;84.83
17781;BME280;8498;52.516;13.790;2023-03-26T06:50:27;99822.31;;;9.12;86.35
17781;BME280;8498;52.516;13.790;2023-03-26T06:56:06;99816.72;;;9.04;86.13
17781;BME280;8498;52.516;13.790;2023-03-26T07:01:50;99820.94;;;8.71;87.49
17781;BME280;8498;52.516;13.790;2023-03-26T07:07:33;99819.53;;;8.78;86.59
17781;BME280;8498;52.516;13.790;2023-03-26T07:13:25;99820.56;;;9.00;85.99
17781;BME280;8498;52.516;13.790;2023-03-26T07:19:10;99824.25;;;9.21;85.53
17781;BME280;8498;52.516;13.790;2023-03-26T07:24:35;99814.34;;;9.12;85.51
17781;BME280;8498;52.516;13.790;2023-03-26T07:36:45;99809.09;;;9.23;82.14
17781;BME280;8498;52.516;13.790;2023-03-26T07:42:43;99805.63;;;9.56;82.42
17781;BME280;8498;52.516;13.790;2023-03-26T07:48:39;99804.53;;;9.70;80.88
17781;BME280;8498;52.516;13.790;2023-03-26T07:54:21;99803.81;;;9.90;77.88
17781;BME280;8498;52.516;13.790;2023-03-26T08:00:16;99804.53;;;9.92;76.45
17781;BME280;8498;52.516;13.790;2023-03-26T08:06:18;99805.63;;;10.23;74.36
17781;BME280;8498;52.516;13.790;2023-03-26T08:17:55;99806.28;;;10.58;73.27
17781;BME280;8498;52.516;13.790;2023-03-26T08:34:43;99804.75;;;10.34;75.07
17781;BME280;8498;52.516;13.790;2023-03-26T08:40:07;99806.88;;;10.51;75.40
17781;BME280;8498;52.516;13.790;2023-03-26T08:45:47;99793.84;;;10.80;73.62
17781;BME280;8498;52.516;13.790;2023-03-26T09:32:01;99778.94;;;11.20;73.10
17781;BME280;8498;52.516;13.790;2023-03-26T09:37:56;99774.47;;;10.68;74.48
17781;BME280;8498;52.516;13.790;2023-03-26T10:12:38;99780.09;;;10.54;79.47
17781;BME280;8498;52.516;13.790;2023-03-26T10:18:13;99789.34;;;10.27;81.16
17781;BME280;8498;52.516;13.790;2023-03-26T10:35:22;99790.56;;;9.90;88.75
17781;BME280;8498;52.516;13.790;2023-03-26T10:52:11;99793.78;;;10.16;85.96
17781;BME280;8498;52.516;13.790;2023-03-26T11:03:29;99789.78;;;10.44;83.79
17781;BME280;8498;52.516;13.790;2023-03-26T11:15:04;99796.59;;;10.25;83.88
17781;BME280;8498;52.516;13.790;2023-03-26T11:37:49;99770.53;;;11.25;79.32
17781;BME280;8498;52.516;13.790;2023-03-26T11:43:13;99778.09;;;11.20;78.48
17781;BME280;8498;52.516;13.790;2023-03-26T11:48:47;99775.78;;;11.66;77.26
17781;BME280;8498;52.516;13.790;2023-03-26T11:54:11;99767.34;;;12.32;74.65
17781;BME280;8498;52.516;13.790;2023-03-26T11:59:40;99765.66;;;12.21;74.46
17781;BME280;8498;52.516;13.790;2023-03-26T12:05:20;99756.56;;;12.91;71.65
17781;BME280;8498;52.516;13.790;2023-03-26T12:10:50;99758.81;;;13.05;70.41
17781;BME280;8498;52.516;13.790;2023-03-26T12:16:20;99744.75;;;13.69;68.36
17781;BME280;8498;52.516;13.790;2023-03-26T12:21:51;99738.63;;;13.86;64.96
17781;BME280;8498;52.516;13.790;2023-03-26T12:32:41;99711.75;;;14.33;62.17
17781;BME280;8498;52.516;13.790;2023-03-26T12:38:35;99711.94;;;14.67;60.54
17781;BME280;8498;52.516;13.790;2023-03-26T12:44:20;99710.34;;;13.93;58.65
17781;BME280;8498;52.516;13.790;2023-03-26T12:50:05;99697.69;;;14.58;57.08
17781;BME280;8498;52.516;13.790;2023-03-26T13:01:14;99701.63;;;14.19;56.68
17781;BME280;8498;52.516;13.790;2023-03-26T13:06:47;99708.06;;;13.99;57.92
17781;BME280;8498;52.516;13.790;2023-03-26T13:12:37;99702.09;;;14.32;57.25
17781;BME280;8498;52.516;13.790;2023-03-26T13:18:28;99694.09;;;14.50;55.76
17781;BME280;8498;52.516;13.790;2023-03-26T13:46:59;99675.81;;;14.81;52.43
17781;BME280;8498;52.516;13.790;2023-03-26T13:52:30;99667.16;;;14.87;52.14
17781;BME280;8498;52.516;13.790;2023-03-26T14:03:56;99672.66;;;14.42;53.21
17781;BME280;8498;52.516;13.790;2023-03-26T14:09:29;99675.31;;;14.59;52.23
17781;BME280;8498;52.516;13.790;2023-03-26T14:14:59;99670.97;;;14.41;53.76
17781;BME280;8498;52.516;13.790;2023-03-26T14:20:53;99659.53;;;13.85;53.37
17781;BME280;8498;52.516;13.790;2023-03-26T15:13:09;99651.34;;;14.32;50.42
17781;BME280;8498;52.516;13.790;2023-03-26T15:42:17;99643.28;;;13.24;53.29
17781;BME280;8498;52.516;13.790;2023-03-26T16:21:38;99643.44;;;12.66;56.87
17781;BME280;8498;52.516;13.790;2023-03-26T16:32:47;99654.41;;;12.34;57.41
17781;BME280;8498;52.516;13.790;2023-03-26T16:38:16;99658.16;;;12.32;57.86
17781;BME280;8498;52.516;13.790;2023-03-26T16:54:56;99666.53;;;11.98;58.49
17781;BME280;8498;52.516;13.790;2023-03-26T17:05:55;99682.50;;;11.98;61.09
17781;BME280;8498;52.516;13.790;2023-03-26T17:22:55;99683.75;;;11.85;61.24
17781;BME280;8498;52.516;13.790;2023-03-26T17:28:38;99678.66;;;11.72;62.02
17781;BME280;8498;52.516;13.790;2023-03-26T17:45:24;99688.72;;;11.28;65.42
17781;BME280;8498;52.516;13.790;2023-03-26T17:50:55;99701.69;;;11.22;66.54
17781;BME280;8498;52.516;13.790;2023-03-26T17:56:23;99697.06;;;11.24;65.87
17781;BME280;8498;52.516;13.790;2023-03-26T18:01:47;99702.69;;;11.21;65.86
17781;BME280;8498;52.516;13.790;2023-03-26T18:19:07;99724.03;;;11.10;65.56
17781;BME280;8498;52.516;13.790;2023-03-26T18:24:39;99718.91;;;10.97;65.45
17781;BME280;8498;52.516;13.790;2023-03-26T18:30:15;99713.84;;;10.94;65.24
17781;BME280;8498;52.516;13.790;2023-03-26T18:35:53;99716.31;;;10.86;64.60
17781;BME280;8498;52.516;13.790;2023-03-26T18:41:29;99715.72;;;10.82;65.10
17781;BME280;8498;52.516;13.790;2023-03-26T18:46:52;99719.63;;;10.78;65.58
17781;BME280;8498;52.516;13.790;2023-03-26T18:52:18;99722.91;;;10.71;65.89
17781;BME280;8498;52.516;13.790;2023-03-26T18:57:41;99723.16;;;10.68;65.62
17781;BME280;8498;52.516;13.790;2023-03-26T19:03:05;99727.69;;;10.56;62.36
17781;BME280;8498;52.516;13.790;2023-03-26T19:08:29;99729.88;;;10.51;62.13
17781;BME280;8498;52.516;13.790;2023-03-26T19:14:13;99732.19;;;10.44;61.79
17781;BME280;8498;52.516;13.790;2023-03-26T19:19:38;99735.22;;;10.40;61.69
17781;BME280;8498;52.516;13.790;2023-03-26T19:25:03;99738.63;;;10.30;61.27
17781;BME280;8498;52.516;13.790;2023-03-26T19:30:34;99741.56;;;10.16;61.31
17781;BME280;8498;52.516;13.790;2023-03-26T19:41:40;99734.22;;;9.98;62.04
17781;BME280;8498;52.516;13.790;2023-03-26T19:47:14;99733.03;;;9.90;62.37
17781;BME280;8498;52.516;13.790;2023-03-26T19:52:40;99756.19;;;9.77;62.12
17781;BME280;8498;52.516;13.790;2023-03-26T19:58:02;99754.28;;;9.68;61.96
17781;BME280;8498;52.516;13.790;2023-03-26T20:03:37;99758.50;;;9.48;61.29
17781;BME280;8498;52.516;13.790;2023-03-26T20:09:00;99772.97;;;9.33;61.29
17781;BME280;8498;52.516;13.790;2023-03-26T20:14:23;99772.69;;;9.25;61.19
17781;BME280;8498;52.516;13.790;2023-03-26T20:19:47;99781.22;;;9.17;61.89
17781;BME280;8498;52.516;13.790;2023-03-26T20:25:16;99782.41;;;9.02;60.80
17781;BME280;8498;52.516;13.790;2023-03-26T20:30:48;99794.06;;;9.00;62.08
17781;BME280;8498;52.516;13.790;2023-03-26T20:36:12;99793.69;;;8.93;62.39
17781;BME280;8498;52.516;13.790;2023-03-26T20:41:38;99803.91;;;8.87;62.24
17781;BME280;8498;52.516;13.790;2023-03-26T20:47:01;99800.63;;;8.83;62.74
17781;BME280;8498;52.516;13.790;2023-03-26T20:52:24;99807.19;;;8.66;62.52
17781;BME280;8498;52.516;13.790;2023-03-26T20:57:49;99813.91;;;8.59;62.71
17781;BME280;8498;52.516;13.790;2023-03-26T21:03:17;99818.69;;;8.54;62.59
17781;BME280;8498;52.516;13.790;2023-03-26T21:08:41;99817.81;;;8.54;62.48
17781;BME280;8498;52.516;13.790;2023-03-26T21:14:24;99825.16;;;8.50;63.33
17781;BME280;8498;52.516;13.790;2023-03-26T21:19:49;99829.72;;;8.48;63.00
17781;BME280;8498;52.516;13.790;2023-03-26T21:25:19;99829.94;;;8.45;63.15
17781;BME280;8498;52.516;13.790;2023-03-26T21:30:43;99843.53;;;8.40;62.86
17781;BME280;8498;52.516;13.790;2023-03-26T21:36:06;99835.91;;;8.36;62.68
17781;BME280;8498;52.516;13.790;2023-03-26T21:41:31;99839.94;;;8.29;63.19
17781;BME280;8498;52.516;13.790;2023-03-26T21:46:57;99851.22;;;8.31;62.00
17781;BME280;8498;52.516;13.790;2023-03-26T21:52:20;99852.41;;;8.27;62.05
17781;BME280;8498;52.516;13.790;2023-03-26T22:03:50;99858.13;;;8.21;62.02
17781;BME280;8498;52.516;13.790;2023-03-26T22:09:15;99860.78;;;8.21;62.56
17781;BME280;8498;52.516;13.790;2023-03-26T22:14:47;99855.81;;;8.16;62.64
17781;BME280;8498;52.516;13.790;2023-03-26T22:20:13;99864.06;;;8.11;62.30
17781;BME280;8498;52.516;13.790;2023-03-26T22:25:37;99866.63;;;8.00;63.10
17781;BME280;8498;52.516;13.790;2023-03-26T22:31:05;99865.16;;;7.96;62.97
17781;BME280;8498;52.516;13.790;2023-03-26T22:36:30;99871.13;;;7.87;63.71
17781;BME280;8498;52.516;13.790;2023-03-26T22:41:56;99872.81;;;7.76;64.58
17781;BME280;8498;52.516;13.790;2023-03-26T22:47:19;99875.25;;;7.66;64.54
17781;BME280;8498;52.516;13.790;2023-03-26T22:52:42;99871.75;;;7.53;65.89
17781;BME280;8498;52.516;13.790;2023-03-26T22:58:06;99885.97;;;7.37;65.45
17781;BME280;8498;52.516;13.790;2023-03-26T23:03:29;99878.69;;;7.28;65.58
17781;BME280;8498;52.516;13.790;2023-03-26T23:08:56;99881.59;;;7.11;66.62
17781;BME280;8498;52.516;13.790;2023-03-26T23:14:19;99898.59;;;7.07;67.00
17781;BME280;8498;52.516;13.790;2023-03-26T23:19:42;99901.66;;;7.01;67.18
17781;BME280;8498;52.516;13.790;2023-03-26T23:25:06;99903.63;;;6.97;67.20
17781;BME280;8498;52.516;13.790;2023-03-26T23:30:28;99913.75;;;6.91;67.48
17781;BME280;8498;52.516;13.790;2023-03-26T23:35:53;99927.56;;;6.82;68.08
17781;BME280;8498;52.516;13.790;2023-03-26T23:41:21;99929.09;;;6.72;68.76
17781;BME280;8498;52.516;13.790;2023-03-26T23:46:43;99938.91;;;6.70;68.80
17781;BME280;8498;52.516;13.790;2023-03-26T23:52:06;99954.38;;;6.61;69.29
17781;BME280;8498;52.516;13.790;2023-03-26T23:57:28;99974.28;;;6.53;69.36
